createdAt,value
2022-11-10T00:00:18.080Z,11.02
2022-11-10T00:01:18.060Z,11.00
2022-11-10T00:02:18.054Z,11.02
2022-11-10T00:03:18.139Z,10.97
2022-11-10T00:04:18.921Z,10.96
2022-11-10T00:05:18.019Z,10.97
2022-11-10T00:06:18.010Z,10.89
2022-11-10T00:07:18.015Z,10.92
2022-11-10T00:08:17.991Z,10.96
2022-11-10T00:09:17.993Z,10.94
2022-11-10T00:10:17.972Z,11.02
2022-11-10T00:11:17.949Z,11.05
2022-11-10T00:12:17.951Z,11.05
2022-11-10T00:13:17.931Z,11.05
2022-11-10T00:14:17.920Z,11.04
2022-11-10T00:15:17.950Z,11.05
2022-11-10T00:16:17.902Z,11.04
2022-11-10T00:17:17.892Z,11.10
2022-11-10T00:18:17.873Z,11.05
2022-11-10T00:19:17.861Z,10.99
2022-11-10T00:20:17.852Z,11.05
2022-11-10T00:21:17.851Z,11.05
2022-11-10T00:22:17.833Z,11.07
2022-11-10T00:23:17.827Z,11.10
2022-11-10T00:24:17.801Z,11.14
2022-11-10T00:25:17.790Z,11.22
2022-11-10T00:26:24.855Z,11.29
2022-11-10T00:27:17.775Z,11.30
2022-11-10T00:28:17.765Z,11.33
2022-11-10T00:29:17.745Z,11.35
2022-11-10T00:30:17.744Z,11.30
2022-11-10T00:31:17.724Z,11.25
2022-11-10T00:32:17.745Z,11.17
2022-11-10T00:33:17.706Z,11.15
2022-11-10T00:34:17.696Z,11.11
2022-11-10T00:35:17.684Z,11.07
2022-11-10T00:36:17.675Z,11.05
2022-11-10T00:37:17.654Z,11.10
2022-11-10T00:38:17.674Z,11.11
2022-11-10T00:39:17.634Z,11.10
2022-11-10T00:40:17.633Z,11.12
2022-11-10T00:41:17.614Z,11.11
2022-11-10T00:42:17.604Z,11.08
2022-11-10T00:43:21.238Z,11.07
2022-11-10T00:44:18.613Z,11.00
2022-11-10T00:45:17.564Z,11.05
2022-11-10T00:46:17.564Z,11.14
2022-11-10T00:47:17.544Z,11.17
2022-11-10T00:48:17.536Z,11.12
2022-11-10T00:49:17.555Z,11.11
2022-11-10T00:50:17.535Z,11.17
2022-11-10T00:51:17.504Z,11.12
2022-11-10T00:52:17.505Z,11.22
2022-11-10T00:53:17.479Z,11.27
2022-11-10T00:54:17.474Z,11.40
2022-11-10T00:55:17.455Z,11.36
2022-11-10T00:56:17.473Z,11.40
2022-11-10T00:57:17.436Z,11.45
2022-11-10T00:58:17.425Z,11.40
2022-11-10T00:59:17.405Z,11.45
2022-11-10T01:00:17.403Z,11.43
2022-11-10T01:01:17.422Z,11.40
2022-11-10T01:02:17.395Z,11.41
2022-11-10T01:03:17.365Z,11.44
2022-11-10T01:04:17.357Z,11.32
2022-11-10T01:05:17.346Z,11.35
2022-11-10T01:06:17.339Z,11.43
2022-11-10T01:07:17.384Z,11.36
2022-11-10T01:08:17.314Z,11.40
2022-11-10T01:09:17.304Z,11.36
2022-11-10T01:10:17.296Z,11.40
2022-11-10T01:11:17.275Z,11.37
2022-11-10T01:12:17.273Z,11.43
2022-11-10T01:13:17.293Z,11.37
2022-11-10T01:14:17.245Z,11.33
2022-11-10T01:15:17.237Z,11.30
2022-11-10T01:16:17.228Z,11.25
2022-11-10T01:17:17.215Z,11.15
2022-11-10T01:18:17.203Z,11.08
2022-11-10T01:19:17.204Z,11.10
2022-11-10T01:20:17.182Z,11.12
2022-11-10T01:21:17.165Z,11.05
2022-11-10T01:22:17.159Z,11.08
2022-11-10T01:23:17.144Z,11.11
2022-11-10T01:24:17.156Z,11.02
2022-11-10T01:25:17.118Z,10.97
2022-11-10T01:26:17.115Z,10.97
2022-11-10T01:27:17.095Z,11.02
2022-11-10T01:28:17.096Z,11.04
2022-11-10T01:29:17.075Z,11.00
2022-11-10T01:30:17.084Z,10.99
2022-11-10T01:31:17.058Z,10.94
2022-11-10T01:32:17.054Z,10.96
2022-11-10T01:33:17.034Z,10.92
2022-11-10T01:34:17.024Z,10.94
2022-11-10T01:35:17.014Z,11.00
2022-11-10T01:36:17.035Z,10.96
2022-11-10T01:37:16.994Z,10.97
2022-11-10T01:38:16.989Z,10.97
2022-11-10T01:39:16.966Z,10.87
2022-11-10T01:40:16.991Z,10.84
2022-11-10T01:41:16.943Z,10.90
2022-11-10T01:42:16.954Z,10.99
2022-11-10T01:43:16.926Z,11.00
2022-11-10T01:44:16.914Z,11.02
2022-11-10T01:45:16.904Z,10.97
2022-11-10T01:46:16.899Z,10.94
2022-11-10T01:47:16.875Z,10.92
2022-11-10T01:48:16.894Z,10.84
2022-11-10T01:49:16.855Z,10.87
2022-11-10T01:50:16.856Z,10.90
2022-11-10T01:51:16.833Z,10.92
2022-11-10T01:52:16.823Z,10.93
2022-11-10T01:53:16.814Z,10.92
2022-11-10T01:54:16.882Z,10.86
2022-11-10T01:55:16.791Z,10.89
2022-11-10T01:56:16.783Z,10.94
2022-11-10T01:57:16.765Z,10.96
2022-11-10T01:58:16.755Z,10.97
2022-11-10T01:59:16.745Z,11.05
2022-11-10T02:00:16.752Z,11.07
2022-11-10T02:01:16.783Z,11.00
2022-11-10T02:02:16.714Z,10.89
2022-11-10T02:03:16.754Z,10.96
2022-11-10T02:04:16.694Z,11.00
2022-11-10T02:05:16.715Z,10.93
2022-11-10T02:06:16.665Z,10.94
2022-11-10T02:07:16.722Z,11.04
2022-11-10T02:08:16.651Z,11.04
2022-11-10T02:09:16.635Z,11.00
2022-11-10T02:10:16.624Z,11.05
2022-11-10T02:11:16.634Z,11.10
2022-11-10T02:12:16.601Z,11.14
2022-11-10T02:13:16.594Z,11.10
2022-11-10T02:14:16.583Z,11.10
2022-11-10T02:15:16.581Z,11.10
2022-11-10T02:16:16.565Z,11.07
2022-11-10T02:17:16.566Z,11.04
2022-11-10T02:18:16.536Z,11.00
2022-11-10T02:19:16.523Z,11.05
2022-11-10T02:20:16.512Z,10.97
2022-11-10T02:21:16.503Z,10.82
2022-11-10T02:22:16.521Z,10.89
2022-11-10T02:23:16.484Z,10.90
2022-11-10T02:24:16.463Z,10.90
2022-11-10T02:25:16.461Z,10.87
2022-11-10T02:26:16.443Z,10.78
2022-11-10T02:27:16.440Z,10.76
2022-11-10T02:28:16.456Z,10.69
2022-11-10T02:29:16.414Z,10.72
2022-11-10T02:30:16.402Z,10.82
2022-11-10T02:31:16.395Z,10.78
2022-11-10T02:32:16.374Z,10.84
2022-11-10T02:33:16.375Z,10.84
2022-11-10T02:34:16.373Z,10.82
2022-11-10T02:35:16.539Z,10.81
2022-11-10T02:36:16.341Z,10.76
2022-11-10T02:37:16.322Z,10.61
2022-11-10T02:38:16.314Z,10.69
2022-11-10T02:39:16.324Z,10.71
2022-11-10T02:40:16.285Z,10.60
2022-11-10T02:41:16.283Z,10.59
2022-11-10T02:42:16.271Z,10.64
2022-11-10T02:43:16.266Z,10.71
2022-11-10T02:44:16.242Z,10.63
2022-11-10T02:45:16.252Z,10.59
2022-11-10T02:46:16.222Z,10.60
2022-11-10T02:47:16.228Z,10.63
2022-11-10T02:48:16.203Z,10.59
2022-11-10T02:49:16.192Z,10.56
2022-11-10T02:50:16.201Z,10.51
2022-11-10T02:51:16.172Z,10.53
2022-11-10T02:52:16.156Z,10.57
2022-11-10T02:53:16.153Z,10.54
2022-11-10T02:54:16.132Z,10.51
2022-11-10T02:55:16.122Z,10.54
2022-11-10T02:56:16.145Z,10.53
2022-11-10T02:57:16.104Z,10.46
2022-11-10T02:58:16.089Z,10.37
2022-11-10T02:59:16.083Z,10.37
2022-11-10T03:00:16.070Z,10.41
2022-11-10T03:01:16.120Z,10.41
2022-11-10T03:02:16.075Z,10.26
2022-11-10T03:03:16.040Z,10.34
2022-11-10T03:04:16.032Z,10.40
2022-11-10T03:05:16.013Z,10.34
2022-11-10T03:06:16.005Z,10.35
2022-11-10T03:07:16.025Z,10.23
2022-11-10T03:08:15.994Z,10.17
2022-11-10T03:09:15.971Z,10.19
2022-11-10T03:10:15.961Z,10.19
2022-11-10T03:11:15.951Z,10.26
2022-11-10T03:12:15.934Z,10.22
2022-11-10T03:13:15.921Z,10.31
2022-11-10T03:14:15.924Z,10.31
2022-11-10T03:15:15.901Z,10.31
2022-11-10T03:16:15.891Z,10.30
2022-11-10T03:17:15.881Z,10.40
2022-11-10T03:18:15.872Z,10.34
2022-11-10T03:19:15.880Z,10.40
2022-11-10T03:20:15.853Z,10.34
2022-11-10T03:21:15.842Z,10.37
2022-11-10T03:22:15.821Z,10.42
2022-11-10T03:23:15.815Z,10.44
2022-11-10T03:24:15.800Z,10.44
2022-11-10T03:25:15.817Z,10.44
2022-11-10T03:26:15.781Z,10.42
2022-11-10T03:27:15.770Z,10.40
2022-11-10T03:28:15.759Z,10.41
2022-11-10T03:29:15.752Z,10.37
2022-11-10T03:30:15.731Z,10.37
2022-11-10T03:31:15.749Z,10.37
2022-11-10T03:32:15.710Z,10.37
2022-11-10T03:33:15.702Z,10.38
2022-11-10T03:34:15.693Z,10.35
2022-11-10T03:35:15.685Z,10.35
2022-11-10T03:36:15.702Z,10.38
2022-11-10T03:37:15.668Z,10.44
2022-11-10T03:38:15.645Z,10.40
2022-11-10T03:39:15.644Z,10.44
2022-11-10T03:40:15.632Z,10.40
2022-11-10T03:41:20.184Z,10.35
2022-11-10T03:42:16.623Z,10.34
2022-11-10T03:43:15.592Z,10.37
2022-11-10T03:44:15.581Z,10.34
2022-11-10T03:45:15.580Z,10.30
2022-11-10T03:46:15.556Z,10.25
2022-11-10T03:47:15.570Z,10.22
2022-11-10T03:48:15.531Z,10.20
2022-11-10T03:49:15.523Z,10.25
2022-11-10T03:50:15.518Z,10.30
2022-11-10T03:51:15.500Z,10.28
2022-11-10T03:52:15.493Z,10.22
2022-11-10T03:53:15.501Z,10.19
2022-11-10T03:54:15.469Z,10.20
2022-11-10T03:55:15.460Z,10.19
2022-11-10T03:56:15.444Z,10.17
2022-11-10T03:57:15.438Z,10.16
2022-11-10T03:58:15.426Z,10.19
2022-11-10T03:59:15.441Z,10.25
2022-11-10T04:00:15.400Z,10.19
2022-11-10T04:01:15.445Z,10.28
2022-11-10T04:02:15.380Z,10.37
2022-11-10T04:03:15.370Z,10.37
2022-11-10T04:04:15.381Z,10.35
2022-11-10T04:05:15.350Z,10.26
2022-11-10T04:06:15.331Z,10.28
2022-11-10T04:07:15.372Z,10.20
2022-11-10T04:08:15.310Z,10.25
2022-11-10T04:09:15.305Z,10.34
2022-11-10T04:10:15.340Z,10.33
2022-11-10T04:11:15.280Z,10.23
2022-11-10T04:12:16.151Z,10.33
2022-11-10T04:13:15.259Z,10.33
2022-11-10T04:14:15.241Z,10.37
2022-11-10T04:15:15.240Z,10.37
2022-11-10T04:16:15.246Z,10.46
2022-11-10T04:17:15.213Z,10.46
2022-11-10T04:18:15.199Z,10.44
2022-11-10T04:19:15.189Z,10.48
2022-11-10T04:20:15.182Z,10.42
2022-11-10T04:21:15.171Z,10.38
2022-11-10T04:22:15.180Z,10.26
2022-11-10T04:23:15.149Z,10.23
2022-11-10T04:24:15.156Z,10.17
2022-11-10T04:25:15.130Z,10.22
2022-11-10T04:26:15.109Z,10.23
2022-11-10T04:27:15.100Z,10.22
2022-11-10T04:28:15.110Z,10.25
2022-11-10T04:29:15.089Z,10.16
2022-11-10T04:30:15.070Z,10.19
2022-11-10T04:31:15.068Z,10.20
2022-11-10T04:32:15.048Z,10.17
2022-11-10T04:33:15.038Z,10.16
2022-11-10T04:34:15.041Z,10.15
2022-11-10T04:35:15.024Z,10.13
2022-11-10T04:36:14.999Z,10.13
2022-11-10T04:37:14.988Z,10.19
2022-11-10T04:38:14.978Z,10.10
2022-11-10T04:39:14.970Z,10.10
2022-11-10T04:40:14.981Z,9.99
2022-11-10T04:41:14.948Z,9.98
2022-11-10T04:42:14.933Z,9.94
2022-11-10T04:43:14.927Z,9.86
2022-11-10T04:44:14.913Z,9.94
2022-11-10T04:45:14.904Z,9.94
2022-11-10T04:46:14.900Z,10.02
2022-11-10T04:47:14.879Z,9.98
2022-11-10T04:48:14.867Z,9.94
2022-11-10T04:49:14.858Z,9.97
2022-11-10T04:50:14.848Z,9.98
2022-11-10T04:51:14.918Z,9.99
2022-11-10T04:52:14.825Z,10.05
2022-11-10T04:53:14.817Z,10.07
2022-11-10T04:54:14.800Z,10.04
2022-11-10T04:55:14.789Z,10.09
2022-11-10T04:56:14.776Z,10.17
2022-11-10T04:57:14.789Z,10.17
2022-11-10T04:58:14.761Z,10.17
2022-11-10T04:59:14.749Z,10.15
2022-11-10T05:00:14.730Z,10.13
2022-11-10T05:01:14.812Z,10.15
2022-11-10T05:02:14.721Z,10.13
2022-11-10T05:03:14.729Z,10.13
2022-11-10T05:04:14.693Z,10.16
2022-11-10T05:05:14.682Z,10.10
2022-11-10T05:06:14.669Z,10.04
2022-11-10T05:07:14.720Z,10.02
2022-11-10T05:08:14.680Z,10.07
2022-11-10T05:09:14.639Z,10.13
2022-11-10T05:10:14.620Z,10.13
2022-11-10T05:11:14.619Z,10.22
2022-11-10T05:12:18.507Z,10.12
2022-11-10T05:13:15.617Z,10.13
2022-11-10T05:14:14.579Z,10.22
2022-11-10T05:15:14.575Z,10.26
2022-11-10T05:16:14.558Z,10.17
2022-11-10T05:17:14.549Z,10.20
2022-11-10T05:18:14.540Z,10.31
2022-11-10T05:19:14.539Z,10.26
2022-11-10T05:20:14.510Z,10.23
2022-11-10T05:21:14.507Z,10.23
2022-11-10T05:22:14.490Z,10.23
2022-11-10T05:23:14.478Z,10.26
2022-11-10T05:24:14.490Z,10.28
2022-11-10T05:25:14.459Z,10.20
2022-11-10T05:26:14.450Z,10.20
2022-11-10T05:27:14.440Z,10.26
2022-11-10T05:28:14.421Z,10.34
2022-11-10T05:29:14.423Z,10.34
2022-11-10T05:30:14.490Z,10.34
2022-11-10T05:31:14.389Z,10.33
2022-11-10T05:32:14.379Z,10.33
2022-11-10T05:33:14.371Z,10.33
2022-11-10T05:34:14.356Z,10.35
2022-11-10T05:35:14.347Z,10.38
2022-11-10T05:36:14.348Z,10.37
2022-11-10T05:37:14.332Z,10.37
2022-11-10T05:38:14.308Z,10.38
2022-11-10T05:39:14.298Z,10.40
2022-11-10T05:40:14.287Z,10.35
2022-11-10T05:41:14.302Z,10.35
2022-11-10T05:42:14.267Z,10.34
2022-11-10T05:43:14.258Z,10.41
2022-11-10T05:44:14.239Z,10.42
2022-11-10T05:45:14.236Z,10.41
2022-11-10T05:46:14.217Z,10.30
2022-11-10T05:47:14.249Z,10.31
2022-11-10T05:48:14.197Z,10.30
2022-11-10T05:49:14.188Z,10.31
2022-11-10T05:50:14.175Z,10.30
2022-11-10T05:51:14.167Z,10.19
2022-11-10T05:52:14.147Z,10.23
2022-11-10T05:53:14.168Z,10.23
2022-11-10T05:54:14.128Z,10.26
2022-11-10T05:55:14.117Z,10.19
2022-11-10T05:56:14.114Z,10.20
2022-11-10T05:57:14.098Z,10.23
2022-11-10T05:58:14.088Z,10.30
2022-11-10T05:59:14.099Z,10.26
2022-11-10T06:00:14.067Z,10.16
2022-11-10T06:01:14.069Z,10.15
2022-11-10T06:02:14.048Z,10.09
2022-11-10T06:03:14.075Z,10.07
2022-11-10T06:04:14.018Z,10.01
2022-11-10T06:05:14.037Z,9.91
2022-11-10T06:06:13.995Z,9.84
2022-11-10T06:07:14.032Z,9.86
2022-11-10T06:08:13.975Z,9.94
2022-11-10T06:09:13.967Z,9.92
2022-11-10T06:10:13.947Z,9.89
2022-11-10T06:11:13.983Z,9.86
2022-11-10T06:12:13.934Z,9.82
2022-11-10T06:13:13.918Z,9.83
2022-11-10T06:14:13.907Z,9.82
2022-11-10T06:15:13.895Z,9.79
2022-11-10T06:16:13.886Z,9.74
2022-11-10T06:17:13.887Z,9.74
2022-11-10T06:18:13.866Z,9.72
2022-11-10T06:19:13.885Z,9.74
2022-11-10T06:20:13.851Z,9.73
2022-11-10T06:21:13.825Z,9.69
2022-11-10T06:22:13.836Z,9.64
2022-11-10T06:23:13.856Z,9.66
2022-11-10T06:24:13.796Z,9.74
2022-11-10T06:25:13.776Z,9.73
2022-11-10T06:26:13.767Z,9.77
2022-11-10T06:27:22.556Z,9.84
2022-11-10T06:28:13.755Z,9.84
2022-11-10T06:29:15.189Z,9.83
2022-11-10T06:30:13.731Z,9.84
2022-11-10T06:31:13.715Z,9.86
2022-11-10T06:32:13.712Z,9.84
2022-11-10T06:33:13.716Z,9.76
2022-11-10T06:34:13.686Z,9.80
2022-11-10T06:35:13.667Z,9.79
2022-11-10T06:36:13.655Z,9.76
2022-11-10T06:37:13.646Z,9.76
2022-11-10T06:38:13.639Z,9.72
2022-11-10T06:39:13.636Z,9.73
2022-11-10T06:40:13.613Z,9.72
2022-11-10T06:41:13.603Z,9.76
2022-11-10T06:42:13.596Z,9.80
2022-11-10T06:43:13.576Z,9.82
2022-11-10T06:44:13.655Z,9.84
2022-11-10T06:45:13.556Z,9.86
2022-11-10T06:46:13.543Z,9.82
2022-11-10T06:47:13.545Z,9.74
2022-11-10T06:48:13.530Z,9.79
2022-11-10T06:49:13.506Z,9.82
2022-11-10T06:50:13.520Z,9.80
2022-11-10T06:51:13.498Z,9.79
2022-11-10T06:52:13.484Z,9.74
2022-11-10T06:53:13.466Z,9.69
2022-11-10T06:54:13.456Z,9.66
2022-11-10T06:55:13.732Z,9.59
2022-11-10T06:56:13.444Z,9.64
2022-11-10T06:57:13.426Z,9.66
2022-11-10T06:58:13.755Z,9.69
2022-11-10T06:59:13.397Z,9.73
2022-11-10T07:00:13.394Z,9.74
2022-11-10T07:01:16.565Z,9.77
2022-11-10T07:02:14.495Z,9.79
2022-11-10T07:03:13.356Z,9.73
2022-11-10T07:04:19.775Z,9.72
2022-11-10T07:05:14.344Z,9.68
2022-11-10T07:06:13.344Z,9.73
2022-11-10T07:07:13.740Z,9.79
2022-11-10T07:08:13.933Z,9.82
2022-11-10T07:09:13.416Z,9.91
2022-11-10T07:10:13.945Z,10.01
2022-11-10T07:11:13.270Z,10.02
2022-11-10T07:12:13.283Z,10.07
2022-11-10T07:13:13.242Z,10.15
2022-11-10T07:14:13.996Z,10.19
2022-11-10T07:15:13.214Z,10.22
2022-11-10T07:16:13.204Z,10.34
2022-11-10T07:17:13.892Z,10.48
2022-11-10T07:18:13.384Z,10.53
2022-11-10T07:19:13.287Z,10.69
2022-11-10T07:20:13.926Z,10.59
2022-11-10T07:21:14.533Z,10.64
2022-11-10T07:22:13.148Z,10.69
2022-11-10T07:23:13.143Z,10.75
2022-11-10T07:24:13.225Z,10.82
2022-11-10T07:25:13.106Z,10.87
2022-11-10T07:26:13.235Z,10.97
2022-11-10T07:27:13.085Z,11.08
2022-11-10T07:28:13.266Z,11.23
2022-11-10T07:29:13.364Z,11.32
2022-11-10T07:30:13.365Z,11.30
2022-11-10T07:31:13.475Z,11.29
2022-11-10T07:32:13.484Z,11.33
2022-11-10T07:33:13.013Z,11.29
2022-11-10T07:34:13.494Z,11.40
2022-11-10T07:35:13.019Z,11.47
2022-11-10T07:36:13.013Z,11.60
2022-11-10T07:37:12.980Z,11.69
2022-11-10T07:38:12.979Z,11.95
2022-11-10T07:39:13.134Z,12.18
2022-11-10T07:40:12.953Z,12.24
2022-11-10T07:41:13.142Z,12.62
2022-11-10T07:42:12.915Z,12.50
2022-11-10T07:43:13.264Z,12.22
2022-11-10T07:44:12.895Z,12.10
2022-11-10T07:45:12.903Z,12.27
2022-11-10T07:46:13.274Z,12.32
2022-11-10T07:47:13.395Z,11.91
2022-11-10T07:48:12.853Z,11.73
2022-11-10T07:49:12.835Z,11.40
2022-11-10T07:50:12.825Z,11.41
2022-11-10T07:51:12.834Z,11.32
2022-11-10T07:52:13.525Z,11.22
2022-11-10T07:53:12.796Z,11.10
2022-11-10T07:54:12.783Z,11.10
2022-11-10T07:55:12.764Z,11.23
2022-11-10T07:56:13.534Z,11.19
2022-11-10T07:57:12.773Z,11.17
2022-11-10T07:58:12.744Z,11.23
2022-11-10T07:59:12.723Z,11.23
2022-11-10T08:00:12.722Z,11.17
2022-11-10T08:01:12.747Z,11.22
2022-11-10T08:02:13.472Z,11.05
2022-11-10T08:03:13.443Z,11.15
2022-11-10T08:04:13.434Z,11.27
2022-11-10T08:05:13.413Z,11.43
2022-11-10T08:06:13.491Z,11.54
2022-11-10T08:07:12.731Z,11.33
2022-11-10T08:08:12.653Z,11.27
2022-11-10T08:09:12.626Z,11.37
2022-11-10T08:10:12.606Z,11.45
2022-11-10T08:11:12.594Z,11.51
2022-11-10T08:12:12.577Z,11.63
2022-11-10T08:13:12.584Z,11.75
2022-11-10T08:14:12.575Z,11.66
2022-11-10T08:15:12.545Z,11.66
2022-11-10T08:16:12.533Z,11.77
2022-11-10T08:17:12.885Z,11.94
2022-11-10T08:18:12.513Z,12.12
2022-11-10T08:19:12.894Z,12.18
2022-11-10T08:20:13.005Z,12.29
2022-11-10T08:21:13.016Z,12.35
2022-11-10T08:22:13.041Z,12.45
2022-11-10T08:23:13.024Z,12.98
2022-11-10T08:24:12.444Z,13.35
2022-11-10T08:25:12.444Z,13.97
2022-11-10T08:26:12.543Z,14.45
2022-11-10T08:27:12.407Z,14.50
2022-11-10T08:28:12.404Z,14.48
2022-11-10T08:29:12.383Z,14.20
2022-11-10T08:30:12.444Z,14.37
2022-11-10T08:31:12.362Z,14.50
2022-11-10T08:32:12.357Z,14.30
2022-11-10T08:33:12.345Z,14.37
2022-11-10T08:34:12.334Z,14.45
2022-11-10T08:35:12.316Z,14.72
2022-11-10T08:36:12.915Z,14.94
2022-11-10T08:37:12.304Z,15.15
2022-11-10T08:38:12.287Z,15.21
2022-11-10T08:39:13.317Z,15.61
2022-11-10T08:40:13.664Z,15.77
2022-11-10T08:41:12.258Z,15.86
2022-11-10T08:42:12.774Z,15.98
2022-11-10T08:43:12.227Z,15.95
2022-11-10T08:44:13.549Z,15.86
2022-11-10T08:45:12.204Z,15.47
2022-11-10T08:46:12.198Z,15.70
2022-11-10T08:47:12.776Z,15.97
2022-11-10T08:48:12.201Z,15.84
2022-11-10T08:49:12.171Z,15.47
2022-11-10T08:50:12.917Z,15.64
2022-11-10T08:51:12.905Z,15.76
2022-11-10T08:52:12.896Z,15.98
2022-11-10T08:53:12.885Z,16.43
2022-11-10T08:54:12.106Z,16.32
2022-11-10T08:55:12.125Z,16.12
2022-11-10T08:56:12.089Z,15.94
2022-11-10T08:57:12.075Z,15.91
2022-11-10T08:58:12.054Z,15.76
2022-11-10T08:59:12.260Z,15.79
2022-11-10T09:00:12.035Z,15.90
2022-11-10T09:01:12.295Z,16.10
2022-11-10T09:02:12.028Z,16.39
2022-11-10T09:03:12.391Z,16.49
2022-11-10T09:04:12.080Z,16.51
2022-11-10T09:05:12.405Z,16.81
2022-11-10T09:06:12.514Z,16.87
2022-11-10T09:07:12.565Z,17.16
2022-11-10T09:08:11.947Z,17.19
2022-11-10T09:09:11.935Z,16.83
2022-11-10T09:10:12.682Z,16.78
2022-11-10T09:11:11.924Z,16.84
2022-11-10T09:12:11.898Z,17.01
2022-11-10T09:13:11.886Z,17.11
2022-11-10T09:14:11.877Z,17.12
2022-11-10T09:15:12.166Z,16.76
2022-11-10T09:16:12.177Z,16.31
2022-11-10T09:17:11.846Z,16.36
2022-11-10T09:18:11.840Z,16.24
2022-11-10T09:19:21.636Z,15.77
2022-11-10T09:20:12.906Z,15.14
2022-11-10T09:21:12.312Z,14.91
2022-11-10T09:22:12.317Z,14.77
2022-11-10T09:23:11.776Z,14.70
2022-11-10T09:24:11.768Z,14.65
2022-11-10T09:25:11.768Z,14.35
2022-11-10T09:26:12.279Z,14.33
2022-11-10T09:27:11.730Z,14.37
2022-11-10T09:28:11.738Z,14.41
2022-11-10T09:29:11.707Z,14.45
2022-11-10T09:30:16.354Z,14.55
2022-11-10T09:31:13.269Z,14.65
2022-11-10T09:32:11.678Z,14.33
2022-11-10T09:33:12.202Z,14.32
2022-11-10T09:34:11.649Z,14.51
2022-11-10T09:35:11.639Z,14.58
2022-11-10T09:36:11.639Z,14.55
2022-11-10T09:37:12.390Z,14.50
2022-11-10T09:38:12.817Z,14.72
2022-11-10T09:39:12.358Z,14.88
2022-11-10T09:40:13.018Z,14.70
2022-11-10T09:41:11.628Z,14.70
2022-11-10T09:42:11.568Z,14.84
2022-11-10T09:43:11.557Z,14.70
2022-11-10T09:44:11.551Z,14.72
2022-11-10T09:45:11.760Z,14.70
2022-11-10T09:46:11.518Z,14.84
2022-11-10T09:47:12.468Z,14.77
2022-11-10T09:48:11.502Z,14.92
2022-11-10T09:49:11.483Z,15.00
2022-11-10T09:50:11.497Z,14.96
2022-11-10T09:51:11.599Z,14.86
2022-11-10T09:52:11.999Z,14.72
2022-11-10T09:53:12.032Z,14.82
2022-11-10T09:54:12.071Z,14.97
2022-11-10T09:55:11.420Z,14.97
2022-11-10T09:56:11.439Z,14.94
2022-11-10T09:57:11.389Z,14.86
2022-11-10T09:58:11.387Z,14.85
2022-11-10T09:59:11.378Z,14.96
2022-11-10T10:00:11.552Z,14.92
2022-11-10T10:01:11.391Z,15.03
2022-11-10T10:02:11.369Z,15.04
2022-11-10T10:03:11.332Z,14.85
2022-11-10T10:04:11.329Z,14.78
2022-11-10T10:05:11.299Z,14.88
2022-11-10T10:06:11.310Z,14.91
2022-11-10T10:07:11.957Z,15.07
2022-11-10T10:08:11.298Z,15.17
2022-11-10T10:09:11.695Z,15.06
2022-11-10T10:10:16.991Z,14.91
2022-11-10T10:11:12.231Z,14.91
2022-11-10T10:12:11.745Z,14.78
2022-11-10T10:13:11.222Z,14.82
2022-11-10T10:14:11.220Z,14.89
2022-11-10T10:15:11.964Z,14.99
2022-11-10T10:16:11.180Z,14.97
2022-11-10T10:17:11.189Z,15.17
2022-11-10T10:18:11.162Z,15.24
2022-11-10T10:19:12.170Z,15.33
2022-11-10T10:20:11.149Z,15.29
2022-11-10T10:21:11.891Z,15.31
2022-11-10T10:22:11.878Z,15.42
2022-11-10T10:23:11.101Z,15.49
2022-11-10T10:24:15.245Z,15.40
2022-11-10T10:25:12.092Z,15.44
2022-11-10T10:26:11.071Z,15.52
2022-11-10T10:27:11.061Z,15.49
2022-11-10T10:28:11.050Z,15.54
2022-11-10T10:29:11.281Z,15.54
2022-11-10T10:30:11.311Z,15.64
2022-11-10T10:31:11.011Z,15.62
2022-11-10T10:32:11.000Z,15.64
2022-11-10T10:33:10.990Z,15.64
2022-11-10T10:34:11.459Z,15.62
2022-11-10T10:35:10.971Z,15.75
2022-11-10T10:36:10.981Z,15.65
2022-11-10T10:37:11.563Z,15.73
2022-11-10T10:38:11.591Z,15.75
2022-11-10T10:39:11.632Z,15.83
2022-11-10T10:40:10.934Z,15.84
2022-11-10T10:41:10.902Z,15.70
2022-11-10T10:42:10.902Z,15.76
2022-11-10T10:43:10.881Z,15.88
2022-11-10T10:44:10.872Z,15.88
2022-11-10T10:45:10.941Z,15.80
2022-11-10T10:46:10.842Z,15.76
2022-11-10T10:47:10.863Z,15.42
2022-11-10T10:48:10.822Z,15.39
2022-11-10T10:49:29.191Z,15.37
2022-11-10T10:50:11.801Z,15.37
2022-11-10T10:51:10.791Z,15.31
2022-11-10T10:52:11.273Z,15.28
2022-11-10T10:53:10.797Z,15.10
2022-11-10T10:54:10.751Z,15.14
2022-11-10T10:55:10.743Z,15.29
2022-11-10T10:56:10.734Z,15.42
2022-11-10T10:57:10.723Z,15.33
2022-11-10T10:58:10.712Z,15.18
2022-11-10T10:59:10.722Z,15.27
2022-11-10T11:00:10.684Z,15.46
2022-11-10T11:01:10.734Z,15.62
2022-11-10T11:02:10.675Z,15.76
2022-11-10T11:03:11.443Z,15.84
2022-11-10T11:04:11.408Z,15.75
2022-11-10T11:05:11.072Z,15.86
2022-11-10T11:06:10.623Z,15.86
2022-11-10T11:07:10.679Z,15.86
2022-11-10T11:08:10.602Z,15.88
2022-11-10T11:09:10.591Z,15.77
2022-11-10T11:10:10.573Z,15.59
2022-11-10T11:11:10.602Z,15.61
2022-11-10T11:12:10.558Z,15.62
2022-11-10T11:13:10.543Z,15.29
2022-11-10T11:14:10.533Z,15.19
2022-11-10T11:15:10.524Z,15.19
2022-11-10T11:16:10.504Z,15.28
2022-11-10T11:17:10.615Z,15.42
2022-11-10T11:18:10.494Z,15.49
2022-11-10T11:19:10.473Z,15.65
2022-11-10T11:20:10.465Z,15.86
2022-11-10T11:21:10.451Z,15.88
2022-11-10T11:22:10.435Z,15.92
2022-11-10T11:23:10.455Z,15.83
2022-11-10T11:24:10.423Z,15.67
2022-11-10T11:25:10.428Z,15.65
2022-11-10T11:26:10.397Z,15.75
2022-11-10T11:27:10.403Z,15.83
2022-11-10T11:28:10.376Z,15.88
2022-11-10T11:29:10.405Z,16.05
2022-11-10T11:30:10.353Z,16.09
2022-11-10T11:31:10.343Z,15.88
2022-11-10T11:32:10.341Z,15.95
2022-11-10T11:33:10.325Z,16.02
2022-11-10T11:34:10.335Z,16.15
2022-11-10T11:35:10.304Z,16.09
2022-11-10T11:36:10.283Z,16.02
2022-11-10T11:37:14.082Z,16.04
2022-11-10T11:38:11.254Z,15.95
2022-11-10T11:39:10.255Z,15.91
2022-11-10T11:40:10.258Z,16.02
2022-11-10T11:41:10.234Z,15.98
2022-11-10T11:42:10.217Z,16.09
2022-11-10T11:43:10.203Z,16.31
2022-11-10T11:44:10.195Z,16.49
2022-11-10T11:45:10.184Z,16.39
2022-11-10T11:46:11.667Z,16.46
2022-11-10T11:47:10.162Z,16.50
2022-11-10T11:48:10.155Z,16.38
2022-11-10T11:49:10.144Z,16.39
2022-11-10T11:50:10.124Z,16.32
2022-11-10T11:51:10.144Z,16.31
2022-11-10T11:52:10.120Z,16.42
2022-11-10T11:53:10.096Z,16.42
2022-11-10T11:54:10.088Z,16.47
2022-11-10T11:55:10.075Z,16.66
2022-11-10T11:56:10.085Z,16.69
2022-11-10T11:57:10.075Z,16.66
2022-11-10T11:58:10.037Z,16.75
2022-11-10T11:59:10.035Z,16.68
2022-11-10T12:00:10.044Z,16.21
2022-11-10T12:01:10.006Z,15.86
2022-11-10T12:02:10.080Z,15.86
2022-11-10T12:03:10.034Z,15.98
2022-11-10T12:04:09.975Z,15.90
2022-11-10T12:05:09.975Z,15.94
2022-11-10T12:06:09.945Z,15.86
2022-11-10T12:07:09.980Z,16.00
2022-11-10T12:08:09.927Z,15.82
2022-11-10T12:09:09.945Z,15.84
2022-11-10T12:10:09.916Z,15.82
2022-11-10T12:11:09.894Z,15.83
2022-11-10T12:12:09.875Z,15.98
2022-11-10T12:13:09.866Z,16.21
2022-11-10T12:14:09.853Z,16.12
2022-11-10T12:15:09.866Z,16.20
2022-11-10T12:16:09.841Z,16.16
2022-11-10T12:17:09.825Z,16.23
2022-11-10T12:18:09.812Z,16.29
2022-11-10T12:19:09.805Z,16.21
2022-11-10T12:20:09.815Z,16.33
2022-11-10T12:21:09.775Z,16.43
2022-11-10T12:22:09.764Z,16.64
2022-11-10T12:23:09.755Z,16.71
2022-11-10T12:24:10.622Z,16.65
2022-11-10T12:25:09.737Z,16.64
2022-11-10T12:26:09.738Z,16.78
2022-11-10T12:27:09.713Z,16.71
2022-11-10T12:28:17.259Z,16.86
2022-11-10T12:29:10.269Z,16.56
2022-11-10T12:30:09.673Z,16.66
2022-11-10T12:31:09.718Z,16.36
2022-11-10T12:32:09.657Z,16.39
2022-11-10T12:33:09.686Z,16.56
2022-11-10T12:34:09.628Z,16.61
2022-11-10T12:35:09.640Z,16.76
2022-11-10T12:36:09.608Z,16.81
2022-11-10T12:37:09.672Z,16.83
2022-11-10T12:38:09.590Z,16.87
2022-11-10T12:39:09.580Z,16.74
2022-11-10T12:40:09.565Z,16.83
2022-11-10T12:41:09.552Z,16.93
2022-11-10T12:42:09.540Z,17.01
2022-11-10T12:43:09.560Z,16.79
2022-11-10T12:44:09.519Z,16.68
2022-11-10T12:45:09.514Z,16.54
2022-11-10T12:46:09.492Z,16.60
2022-11-10T12:47:09.490Z,16.61
2022-11-10T12:48:09.469Z,16.68
2022-11-10T12:49:09.482Z,16.68
2022-11-10T12:50:09.450Z,16.56
2022-11-10T12:51:09.439Z,16.49
2022-11-10T12:52:09.427Z,16.35
2022-11-10T12:53:09.790Z,16.33
2022-11-10T12:54:15.338Z,16.57
2022-11-10T12:55:10.446Z,16.60